sensor_id;sensor_type;location;lat;lon;timestamp;P1;durP1;ratioP1;P2;durP2;ratioP2
15669;SDS011;18524;45.190;5.732;2024-03-06T00:02:10;1.77;;;1.67;;
15669;SDS011;18524;45.190;5.732;2024-03-06T00:07:00;1.90;;;1.67;;
15669;SDS011;18524;45.190;5.732;2024-03-06T00:11:51;2.63;;;2.00;;
15669;SDS011;18524;45.190;5.732;2024-03-06T00:16:42;2.37;;;2.10;;
15669;SDS011;18524;45.190;5.732;2024-03-06T00:21:33;1.57;;;0.90;;
15669;SDS011;18524;45.190;5.732;2024-03-06T00:26:23;0.97;;;0.77;;
15669;SDS011;18524;45.190;5.732;2024-03-06T00:31:14;1.40;;;1.20;;
15669;SDS011;18524;45.190;5.732;2024-03-06T00:36:04;2.40;;;1.10;;
15669;SDS011;18524;45.190;5.732;2024-03-06T00:40:55;2.60;;;1.30;;
15669;SDS011;18524;45.190;5.732;2024-03-06T00:45:47;3.27;;;1.77;;
15669;SDS011;18524;45.190;5.732;2024-03-06T00:50:37;1.63;;;1.53;;
15669;SDS011;18524;45.190;5.732;2024-03-06T00:55:28;1.07;;;0.90;;
15669;SDS011;18524;45.190;5.732;2024-03-06T01:00:19;1.27;;;0.50;;
15669;SDS011;18524;45.190;5.732;2024-03-06T01:05:09;1.03;;;0.90;;
15669;SDS011;18524;45.190;5.732;2024-03-06T01:10:00;1.17;;;1.00;;
15669;SDS011;18524;45.190;5.732;2024-03-06T01:14:51;1.30;;;0.90;;
15669;SDS011;18524;45.190;5.732;2024-03-06T01:19:41;1.47;;;1.27;;
15669;SDS011;18524;45.190;5.732;2024-03-06T01:24:34;2.03;;;1.30;;
15669;SDS011;18524;45.190;5.732;2024-03-06T01:29:25;2.27;;;1.50;;
15669;SDS011;18524;45.190;5.732;2024-03-06T01:34:17;2.17;;;1.67;;
15669;SDS011;18524;45.190;5.732;2024-03-06T01:39:07;3.23;;;1.80;;
15669;SDS011;18524;45.190;5.732;2024-03-06T01:43:59;2.87;;;1.73;;
15669;SDS011;18524;45.190;5.732;2024-03-06T01:48:51;1.40;;;1.30;;
15669;SDS011;18524;45.190;5.732;2024-03-06T01:53:41;1.60;;;1.30;;
15669;SDS011;18524;45.190;5.732;2024-03-06T01:58:32;2.00;;;1.47;;
15669;SDS011;18524;45.190;5.732;2024-03-06T02:03:23;1.77;;;1.67;;
15669;SDS011;18524;45.190;5.732;2024-03-06T02:08:15;1.87;;;1.67;;
15669;SDS011;18524;45.190;5.732;2024-03-06T02:13:06;1.57;;;1.47;;
15669;SDS011;18524;45.190;5.732;2024-03-06T02:17:56;2.90;;;1.50;;
15669;SDS011;18524;45.190;5.732;2024-03-06T02:22:46;1.67;;;1.30;;
15669;SDS011;18524;45.190;5.732;2024-03-06T02:27:37;1.60;;;1.50;;
15669;SDS011;18524;45.190;5.732;2024-03-06T02:32:27;1.73;;;1.57;;
15669;SDS011;18524;45.190;5.732;2024-03-06T02:37:18;1.60;;;1.50;;
15669;SDS011;18524;45.190;5.732;2024-03-06T02:42:08;2.80;;;1.70;;
15669;SDS011;18524;45.190;5.732;2024-03-06T02:46:59;1.93;;;1.60;;
15669;SDS011;18524;45.190;5.732;2024-03-06T02:51:49;1.87;;;1.67;;
15669;SDS011;18524;45.190;5.732;2024-03-06T02:56:39;2.10;;;1.90;;
15669;SDS011;18524;45.190;5.732;2024-03-06T03:01:30;2.33;;;2.13;;
15669;SDS011;18524;45.190;5.732;2024-03-06T03:06:20;2.90;;;2.20;;
15669;SDS011;18524;45.190;5.732;2024-03-06T03:11:11;2.80;;;2.03;;
15669;SDS011;18524;45.190;5.732;2024-03-06T03:16:01;2.50;;;2.20;;
15669;SDS011;18524;45.190;5.732;2024-03-06T03:20:53;2.60;;;2.40;;
15669;SDS011;18524;45.190;5.732;2024-03-06T03:25:44;2.90;;;2.43;;
15669;SDS011;18524;45.190;5.732;2024-03-06T03:30:36;3.57;;;2.33;;
15669;SDS011;18524;45.190;5.732;2024-03-06T03:35:26;2.40;;;2.20;;
15669;SDS011;18524;45.190;5.732;2024-03-06T03:40:16;2.43;;;2.20;;
15669;SDS011;18524;45.190;5.732;2024-03-06T03:45:07;2.30;;;2.07;;
15669;SDS011;18524;45.190;5.732;2024-03-06T03:49:58;2.47;;;2.07;;
15669;SDS011;18524;45.190;5.732;2024-03-06T03:54:49;2.47;;;2.27;;
15669;SDS011;18524;45.190;5.732;2024-03-06T03:59:39;2.50;;;2.30;;
15669;SDS011;18524;45.190;5.732;2024-03-06T04:04:31;2.83;;;2.63;;
15669;SDS011;18524;45.190;5.732;2024-03-06T04:09:21;2.73;;;2.53;;
15669;SDS011;18524;45.190;5.732;2024-03-06T04:14:11;3.70;;;2.70;;
15669;SDS011;18524;45.190;5.732;2024-03-06T04:19:02;3.13;;;2.73;;
15669;SDS011;18524;45.190;5.732;2024-03-06T04:23:53;3.23;;;2.93;;
15669;SDS011;18524;45.190;5.732;2024-03-06T04:28:44;2.67;;;2.47;;
15669;SDS011;18524;45.190;5.732;2024-03-06T04:33:34;2.50;;;2.30;;
15669;SDS011;18524;45.190;5.732;2024-03-06T04:38:25;2.00;;;1.80;;
15669;SDS011;18524;45.190;5.732;2024-03-06T04:43:15;1.90;;;1.40;;
15669;SDS011;18524;45.190;5.732;2024-03-06T04:48:06;2.13;;;1.93;;
15669;SDS011;18524;45.190;5.732;2024-03-06T04:52:58;2.03;;;1.87;;
15669;SDS011;18524;45.190;5.732;2024-03-06T04:57:49;2.20;;;2.00;;
15669;SDS011;18524;45.190;5.732;2024-03-06T05:02:39;2.33;;;2.13;;
15669;SDS011;18524;45.190;5.732;2024-03-06T05:07:31;2.50;;;2.30;;
15669;SDS011;18524;45.190;5.732;2024-03-06T05:12:22;2.97;;;2.67;;
15669;SDS011;18524;45.190;5.732;2024-03-06T05:17:13;2.60;;;2.40;;
15669;SDS011;18524;45.190;5.732;2024-03-06T05:22:03;2.60;;;2.40;;
15669;SDS011;18524;45.190;5.732;2024-03-06T05:26:53;4.30;;;3.60;;
15669;SDS011;18524;45.190;5.732;2024-03-06T05:31:44;4.13;;;3.67;;
15669;SDS011;18524;45.190;5.732;2024-03-06T05:36:35;4.37;;;3.50;;
15669;SDS011;18524;45.190;5.732;2024-03-06T05:41:25;4.67;;;4.00;;
15669;SDS011;18524;45.190;5.732;2024-03-06T05:46:16;5.27;;;4.27;;
15669;SDS011;18524;45.190;5.732;2024-03-06T05:51:06;3.80;;;3.50;;
15669;SDS011;18524;45.190;5.732;2024-03-06T05:55:57;3.47;;;3.17;;
15669;SDS011;18524;45.190;5.732;2024-03-06T06:00:47;4.77;;;4.30;;
15669;SDS011;18524;45.190;5.732;2024-03-06T06:05:38;6.57;;;4.93;;
15669;SDS011;18524;45.190;5.732;2024-03-06T06:10:29;5.90;;;5.27;;
15669;SDS011;18524;45.190;5.732;2024-03-06T06:15:20;5.20;;;4.63;;
15669;SDS011;18524;45.190;5.732;2024-03-06T06:20:10;5.50;;;5.00;;
15669;SDS011;18524;45.190;5.732;2024-03-06T06:25:04;5.23;;;4.73;;
15669;SDS011;18524;45.190;5.732;2024-03-06T06:29:57;5.27;;;4.37;;
15669;SDS011;18524;45.190;5.732;2024-03-06T06:34:48;5.10;;;4.60;;
15669;SDS011;18524;45.190;5.732;2024-03-06T06:39:39;5.83;;;5.23;;
15669;SDS011;18524;45.190;5.732;2024-03-06T06:44:29;6.50;;;5.90;;
15669;SDS011;18524;45.190;5.732;2024-03-06T06:49:20;7.10;;;6.40;;
15669;SDS011;18524;45.190;5.732;2024-03-06T06:54:10;7.23;;;6.47;;
15669;SDS011;18524;45.190;5.732;2024-03-06T06:59:01;6.93;;;6.27;;
15669;SDS011;18524;45.190;5.732;2024-03-06T07:03:51;6.40;;;5.80;;
15669;SDS011;18524;45.190;5.732;2024-03-06T07:08:41;7.07;;;6.37;;
15669;SDS011;18524;45.190;5.732;2024-03-06T07:13:32;6.83;;;6.13;;
15669;SDS011;18524;45.190;5.732;2024-03-06T07:18:22;6.83;;;6.17;;
15669;SDS011;18524;45.190;5.732;2024-03-06T07:23:13;6.60;;;5.97;;
15669;SDS011;18524;45.190;5.732;2024-03-06T07:28:03;6.13;;;5.50;;
15669;SDS011;18524;45.190;5.732;2024-03-06T07:32:54;6.47;;;4.90;;
15669;SDS011;18524;45.190;5.732;2024-03-06T07:37:44;6.53;;;4.97;;
15669;SDS011;18524;45.190;5.732;2024-03-06T07:42:35;5.37;;;4.77;;
15669;SDS011;18524;45.190;5.732;2024-03-06T07:47:25;5.00;;;4.57;;
15669;SDS011;18524;45.190;5.732;2024-03-06T07:52:15;6.67;;;4.93;;
15669;SDS011;18524;45.190;5.732;2024-03-06T07:57:06;6.47;;;4.73;;
15669;SDS011;18524;45.190;5.732;2024-03-06T08:01:56;5.90;;;4.97;;
15669;SDS011;18524;45.190;5.732;2024-03-06T08:06:47;5.50;;;5.00;;
15669;SDS011;18524;45.190;5.732;2024-03-06T08:11:37;6.63;;;4.10;;
15669;SDS011;18524;45.190;5.732;2024-03-06T08:16:27;5.40;;;4.87;;
15669;SDS011;18524;45.190;5.732;2024-03-06T08:21:18;7.73;;;5.87;;
15669;SDS011;18524;45.190;5.732;2024-03-06T08:26:09;6.53;;;5.47;;
15669;SDS011;18524;45.190;5.732;2024-03-06T08:31:00;5.93;;;5.30;;
15669;SDS011;18524;45.190;5.732;2024-03-06T08:35:51;5.20;;;4.70;;
15669;SDS011;18524;45.190;5.732;2024-03-06T08:40:41;6.57;;;5.00;;
15669;SDS011;18524;45.190;5.732;2024-03-06T08:45:35;6.43;;;4.77;;
15669;SDS011;18524;45.190;5.732;2024-03-06T08:50:26;7.00;;;5.20;;
15669;SDS011;18524;45.190;5.732;2024-03-06T08:55:16;7.77;;;4.80;;
15669;SDS011;18524;45.190;5.732;2024-03-06T09:00:07;5.97;;;4.93;;
15669;SDS011;18524;45.190;5.732;2024-03-06T09:05:00;4.70;;;4.30;;
15669;SDS011;18524;45.190;5.732;2024-03-06T09:09:53;4.50;;;3.90;;
15669;SDS011;18524;45.190;5.732;2024-03-06T09:14:44;5.03;;;4.27;;
15669;SDS011;18524;45.190;5.732;2024-03-06T09:19:37;4.53;;;4.13;;
15669;SDS011;18524;45.190;5.732;2024-03-06T09:24:28;5.57;;;4.47;;
15669;SDS011;18524;45.190;5.732;2024-03-06T09:29:18;5.00;;;4.60;;
15669;SDS011;18524;45.190;5.732;2024-03-06T09:34:09;13.33;;;7.87;;
15669;SDS011;18524;45.190;5.732;2024-03-06T09:39:02;9.33;;;5.70;;
15669;SDS011;18524;45.190;5.732;2024-03-06T09:43:55;5.23;;;4.73;;
15669;SDS011;18524;45.190;5.732;2024-03-06T09:48:46;5.40;;;4.90;;
15669;SDS011;18524;45.190;5.732;2024-03-06T09:53:37;4.80;;;4.37;;
15669;SDS011;18524;45.190;5.732;2024-03-06T09:58:29;4.90;;;4.40;;
15669;SDS011;18524;45.190;5.732;2024-03-06T10:03:19;5.03;;;4.60;;
15669;SDS011;18524;45.190;5.732;2024-03-06T10:08:10;4.60;;;4.20;;
15669;SDS011;18524;45.190;5.732;2024-03-06T10:13:00;4.30;;;3.90;;
15669;SDS011;18524;45.190;5.732;2024-03-06T10:17:51;3.40;;;3.00;;
15669;SDS011;18524;45.190;5.732;2024-03-06T10:22:41;4.00;;;3.23;;
15669;SDS011;18524;45.190;5.732;2024-03-06T10:27:31;3.07;;;2.73;;
15669;SDS011;18524;45.190;5.732;2024-03-06T10:32:22;3.17;;;2.87;;
15669;SDS011;18524;45.190;5.732;2024-03-06T10:37:12;3.23;;;2.87;;
15669;SDS011;18524;45.190;5.732;2024-03-06T10:42:03;3.17;;;2.73;;
15669;SDS011;18524;45.190;5.732;2024-03-06T10:46:58;3.40;;;3.10;;
15669;SDS011;18524;45.190;5.732;2024-03-06T10:51:53;3.37;;;3.07;;
15669;SDS011;18524;45.190;5.732;2024-03-06T10:56:47;3.00;;;2.67;;
15669;SDS011;18524;45.190;5.732;2024-03-06T11:01:38;3.20;;;2.90;;
15669;SDS011;18524;45.190;5.732;2024-03-06T11:06:29;2.20;;;2.00;;
15669;SDS011;18524;45.190;5.732;2024-03-06T11:11:23;5.00;;;4.50;;
15669;SDS011;18524;45.190;5.732;2024-03-06T11:16:15;1.63;;;1.43;;
15669;SDS011;18524;45.190;5.732;2024-03-06T11:26:05;1.53;;;1.30;;
15669;SDS011;18524;45.190;5.732;2024-03-06T11:36:20;2.90;;;1.20;;
15669;SDS011;18524;45.190;5.732;2024-03-06T11:41:12;0.97;;;0.77;;
15669;SDS011;18524;45.190;5.732;2024-03-06T11:46:08;1.10;;;0.67;;
15669;SDS011;18524;45.190;5.732;2024-03-06T11:51:01;2.10;;;1.10;;
15669;SDS011;18524;45.190;5.732;2024-03-06T11:55:52;2.40;;;1.50;;
15669;SDS011;18524;45.190;5.732;2024-03-06T12:00:42;2.77;;;2.33;;
15669;SDS011;18524;45.190;5.732;2024-03-06T12:05:35;2.80;;;1.90;;
15669;SDS011;18524;45.190;5.732;2024-03-06T12:10:27;3.00;;;2.00;;
15669;SDS011;18524;45.190;5.732;2024-03-06T12:15:17;1.07;;;0.70;;
15669;SDS011;18524;45.190;5.732;2024-03-06T12:20:12;1.07;;;0.90;;
15669;SDS011;18524;45.190;5.732;2024-03-06T12:25:06;1.70;;;1.07;;
15669;SDS011;18524;45.190;5.732;2024-03-06T12:29:56;2.50;;;1.43;;
15669;SDS011;18524;45.190;5.732;2024-03-06T12:34:57;0.77;;;0.60;;
15669;SDS011;18524;45.190;5.732;2024-03-06T12:39:51;2.30;;;1.13;;
15669;SDS011;18524;45.190;5.732;2024-03-06T12:44:41;8.63;;;3.50;;
15669;SDS011;18524;45.190;5.732;2024-03-06T12:49:31;1.83;;;1.00;;
15669;SDS011;18524;45.190;5.732;2024-03-06T12:54:22;2.07;;;0.73;;
15669;SDS011;18524;45.190;5.732;2024-03-06T12:59:13;1.77;;;0.70;;
15669;SDS011;18524;45.190;5.732;2024-03-06T13:04:03;1.17;;;0.43;;
15669;SDS011;18524;45.190;5.732;2024-03-06T13:08:53;1.67;;;0.67;;
15669;SDS011;18524;45.190;5.732;2024-03-06T13:13:44;2.27;;;0.70;;
15669;SDS011;18524;45.190;5.732;2024-03-06T13:18:34;1.40;;;0.80;;
15669;SDS011;18524;45.190;5.732;2024-03-06T13:23:24;2.50;;;0.80;;
15669;SDS011;18524;45.190;5.732;2024-03-06T13:28:15;1.20;;;0.70;;
15669;SDS011;18524;45.190;5.732;2024-03-06T13:33:05;1.80;;;0.60;;
15669;SDS011;18524;45.190;5.732;2024-03-06T13:37:57;1.20;;;0.70;;
15669;SDS011;18524;45.190;5.732;2024-03-06T13:42:47;2.47;;;0.60;;
15669;SDS011;18524;45.190;5.732;2024-03-06T13:47:38;1.00;;;0.33;;
15669;SDS011;18524;45.190;5.732;2024-03-06T13:52:30;2.70;;;0.80;;
15669;SDS011;18524;45.190;5.732;2024-03-06T13:57:20;1.13;;;0.50;;
15669;SDS011;18524;45.190;5.732;2024-03-06T14:02:11;0.83;;;0.60;;
15669;SDS011;18524;45.190;5.732;2024-03-06T14:07:01;1.00;;;0.50;;
15669;SDS011;18524;45.190;5.732;2024-03-06T14:11:52;1.83;;;0.60;;
15669;SDS011;18524;45.190;5.732;2024-03-06T14:16:43;1.40;;;0.60;;
15669;SDS011;18524;45.190;5.732;2024-03-06T14:21:34;2.23;;;0.57;;
15669;SDS011;18524;45.190;5.732;2024-03-06T14:26:25;2.23;;;0.50;;
15669;SDS011;18524;45.190;5.732;2024-03-06T14:31:17;0.83;;;0.50;;
15669;SDS011;18524;45.190;5.732;2024-03-06T14:36:08;1.50;;;0.50;;
15669;SDS011;18524;45.190;5.732;2024-03-06T14:40:58;3.50;;;0.70;;
15669;SDS011;18524;45.190;5.732;2024-03-06T14:45:49;1.93;;;0.50;;
15669;SDS011;18524;45.190;5.732;2024-03-06T14:50:39;0.90;;;0.50;;
15669;SDS011;18524;45.190;5.732;2024-03-06T14:55:29;1.73;;;0.70;;
15669;SDS011;18524;45.190;5.732;2024-03-06T15:00:20;1.23;;;0.57;;
15669;SDS011;18524;45.190;5.732;2024-03-06T15:05:11;1.93;;;0.80;;
15669;SDS011;18524;45.190;5.732;2024-03-06T15:10:02;1.60;;;0.67;;
15669;SDS011;18524;45.190;5.732;2024-03-06T15:14:52;1.10;;;0.80;;
15669;SDS011;18524;45.190;5.732;2024-03-06T15:19:44;2.10;;;0.67;;
15669;SDS011;18524;45.190;5.732;2024-03-06T15:24:34;1.60;;;0.50;;
15669;SDS011;18524;45.190;5.732;2024-03-06T15:29:25;2.23;;;0.70;;
15669;SDS011;18524;45.190;5.732;2024-03-06T15:34:15;3.40;;;1.20;;
15669;SDS011;18524;45.190;5.732;2024-03-06T15:39:05;1.27;;;0.80;;
15669;SDS011;18524;45.190;5.732;2024-03-06T15:43:56;1.30;;;1.00;;
15669;SDS011;18524;45.190;5.732;2024-03-06T15:48:47;1.70;;;0.87;;
15669;SDS011;18524;45.190;5.732;2024-03-06T15:53:37;1.77;;;0.77;;
15669;SDS011;18524;45.190;5.732;2024-03-06T15:58:27;2.43;;;0.90;;
15669;SDS011;18524;45.190;5.732;2024-03-06T16:03:18;1.50;;;0.90;;
15669;SDS011;18524;45.190;5.732;2024-03-06T16:08:08;1.57;;;0.70;;
15669;SDS011;18524;45.190;5.732;2024-03-06T16:12:59;0.97;;;0.70;;
15669;SDS011;18524;45.190;5.732;2024-03-06T16:17:49;2.10;;;0.80;;
15669;SDS011;18524;45.190;5.732;2024-03-06T16:22:39;2.50;;;0.80;;
15669;SDS011;18524;45.190;5.732;2024-03-06T16:27:30;2.37;;;0.90;;
15669;SDS011;18524;45.190;5.732;2024-03-06T16:32:20;1.00;;;0.67;;
15669;SDS011;18524;45.190;5.732;2024-03-06T16:37:11;1.57;;;0.90;;
15669;SDS011;18524;45.190;5.732;2024-03-06T16:42:01;4.17;;;0.80;;
15669;SDS011;18524;45.190;5.732;2024-03-06T16:46:52;1.07;;;0.60;;
15669;SDS011;18524;45.190;5.732;2024-03-06T16:51:42;1.10;;;0.60;;
15669;SDS011;18524;45.190;5.732;2024-03-06T16:56:32;1.10;;;0.73;;
15669;SDS011;18524;45.190;5.732;2024-03-06T17:01:23;1.23;;;0.80;;
15669;SDS011;18524;45.190;5.732;2024-03-06T17:06:14;1.33;;;1.10;;
15669;SDS011;18524;45.190;5.732;2024-03-06T17:11:04;2.20;;;1.40;;
15669;SDS011;18524;45.190;5.732;2024-03-06T17:15:58;1.57;;;1.10;;
15669;SDS011;18524;45.190;5.732;2024-03-06T17:20:48;1.20;;;0.93;;
15669;SDS011;18524;45.190;5.732;2024-03-06T17:25:38;3.73;;;1.60;;
15669;SDS011;18524;45.190;5.732;2024-03-06T17:30:29;3.37;;;1.80;;
15669;SDS011;18524;45.190;5.732;2024-03-06T17:35:20;2.53;;;1.40;;
15669;SDS011;18524;45.190;5.732;2024-03-06T17:40:10;3.33;;;1.30;;
15669;SDS011;18524;45.190;5.732;2024-03-06T17:45:01;2.20;;;1.30;;
15669;SDS011;18524;45.190;5.732;2024-03-06T17:49:51;2.00;;;1.00;;
15669;SDS011;18524;45.190;5.732;2024-03-06T17:54:42;2.47;;;0.93;;
15669;SDS011;18524;45.190;5.732;2024-03-06T17:59:32;2.67;;;1.23;;
15669;SDS011;18524;45.190;5.732;2024-03-06T18:04:22;2.70;;;1.30;;
15669;SDS011;18524;45.190;5.732;2024-03-06T18:09:14;3.80;;;2.90;;
15669;SDS011;18524;45.190;5.732;2024-03-06T18:14:05;3.53;;;2.07;;
15669;SDS011;18524;45.190;5.732;2024-03-06T18:18:55;1.70;;;1.03;;
15669;SDS011;18524;45.190;5.732;2024-03-06T18:23:45;2.50;;;1.10;;
15669;SDS011;18524;45.190;5.732;2024-03-06T18:28:36;4.13;;;1.90;;
15669;SDS011;18524;45.190;5.732;2024-03-06T18:33:26;2.33;;;1.40;;
15669;SDS011;18524;45.190;5.732;2024-03-06T18:38:17;2.23;;;1.33;;
15669;SDS011;18524;45.190;5.732;2024-03-06T18:43:07;2.20;;;1.20;;
15669;SDS011;18524;45.190;5.732;2024-03-06T18:47:58;3.53;;;2.07;;
15669;SDS011;18524;45.190;5.732;2024-03-06T18:52:49;2.67;;;1.53;;
15669;SDS011;18524;45.190;5.732;2024-03-06T18:57:40;3.13;;;1.33;;
15669;SDS011;18524;45.190;5.732;2024-03-06T19:02:31;3.97;;;1.60;;
15669;SDS011;18524;45.190;5.732;2024-03-06T19:07:22;2.40;;;1.63;;
15669;SDS011;18524;45.190;5.732;2024-03-06T19:12:12;3.47;;;1.60;;
15669;SDS011;18524;45.190;5.732;2024-03-06T19:17:03;2.83;;;1.90;;
15669;SDS011;18524;45.190;5.732;2024-03-06T19:21:54;4.23;;;2.20;;
15669;SDS011;18524;45.190;5.732;2024-03-06T19:26:46;4.53;;;2.17;;
15669;SDS011;18524;45.190;5.732;2024-03-06T19:31:36;3.33;;;2.17;;
15669;SDS011;18524;45.190;5.732;2024-03-06T19:36:26;7.07;;;2.97;;
15669;SDS011;18524;45.190;5.732;2024-03-06T19:41:17;4.20;;;2.30;;
15669;SDS011;18524;45.190;5.732;2024-03-06T19:46:07;5.77;;;2.53;;
15669;SDS011;18524;45.190;5.732;2024-03-06T19:50:58;4.60;;;2.17;;
15669;SDS011;18524;45.190;5.732;2024-03-06T19:55:49;4.73;;;1.67;;
15669;SDS011;18524;45.190;5.732;2024-03-06T20:00:39;3.40;;;1.57;;
15669;SDS011;18524;45.190;5.732;2024-03-06T20:05:30;3.57;;;2.10;;
15669;SDS011;18524;45.190;5.732;2024-03-06T20:10:21;12.43;;;8.23;;
15669;SDS011;18524;45.190;5.732;2024-03-06T20:15:12;5.00;;;3.40;;
15669;SDS011;18524;45.190;5.732;2024-03-06T20:20:04;3.53;;;2.50;;
15669;SDS011;18524;45.190;5.732;2024-03-06T20:24:55;4.47;;;2.80;;
15669;SDS011;18524;45.190;5.732;2024-03-06T20:29:45;7.73;;;4.37;;
15669;SDS011;18524;45.190;5.732;2024-03-06T20:34:36;5.30;;;3.70;;
15669;SDS011;18524;45.190;5.732;2024-03-06T20:39:27;5.37;;;3.87;;
15669;SDS011;18524;45.190;5.732;2024-03-06T20:44:17;6.20;;;4.00;;
15669;SDS011;18524;45.190;5.732;2024-03-06T20:49:07;6.67;;;4.30;;
15669;SDS011;18524;45.190;5.732;2024-03-06T20:53:58;13.67;;;10.07;;
15669;SDS011;18524;45.190;5.732;2024-03-06T20:58:49;11.80;;;8.10;;
15669;SDS011;18524;45.190;5.732;2024-03-06T21:03:40;9.03;;;6.70;;
15669;SDS011;18524;45.190;5.732;2024-03-06T21:08:30;5.63;;;4.13;;
15669;SDS011;18524;45.190;5.732;2024-03-06T21:13:21;6.93;;;5.27;;
15669;SDS011;18524;45.190;5.732;2024-03-06T21:18:11;10.13;;;6.77;;
15669;SDS011;18524;45.190;5.732;2024-03-06T21:23:02;13.23;;;7.57;;
15669;SDS011;18524;45.190;5.732;2024-03-06T21:27:52;5.57;;;3.90;;
15669;SDS011;18524;45.190;5.732;2024-03-06T21:32:44;6.47;;;4.20;;
15669;SDS011;18524;45.190;5.732;2024-03-06T21:37:34;9.67;;;6.33;;
15669;SDS011;18524;45.190;5.732;2024-03-06T21:42:25;9.00;;;5.40;;
15669;SDS011;18524;45.190;5.732;2024-03-06T21:47:15;6.57;;;4.87;;
15669;SDS011;18524;45.190;5.732;2024-03-06T21:52:07;8.20;;;5.47;;
15669;SDS011;18524;45.190;5.732;2024-03-06T21:57:00;9.77;;;6.03;;
15669;SDS011;18524;45.190;5.732;2024-03-06T22:01:55;8.73;;;5.90;;
15669;SDS011;18524;45.190;5.732;2024-03-06T22:06:46;6.43;;;5.30;;
15669;SDS011;18524;45.190;5.732;2024-03-06T22:11:44;6.60;;;5.13;;
15669;SDS011;18524;45.190;5.732;2024-03-06T22:16:35;9.10;;;6.10;;
15669;SDS011;18524;45.190;5.732;2024-03-06T22:21:26;8.13;;;5.43;;
15669;SDS011;18524;45.190;5.732;2024-03-06T22:26:16;9.80;;;6.10;;
15669;SDS011;18524;45.190;5.732;2024-03-06T22:31:07;7.80;;;5.70;;
15669;SDS011;18524;45.190;5.732;2024-03-06T22:35:58;7.73;;;5.30;;
15669;SDS011;18524;45.190;5.732;2024-03-06T22:40:48;8.53;;;5.70;;
15669;SDS011;18524;45.190;5.732;2024-03-06T22:45:38;19.10;;;9.83;;
15669;SDS011;18524;45.190;5.732;2024-03-06T22:50:29;18.20;;;8.53;;
15669;SDS011;18524;45.190;5.732;2024-03-06T22:55:19;10.40;;;6.27;;
15669;SDS011;18524;45.190;5.732;2024-03-06T23:00:10;10.67;;;6.93;;
15669;SDS011;18524;45.190;5.732;2024-03-06T23:05:11;9.07;;;6.20;;
15669;SDS011;18524;45.190;5.732;2024-03-06T23:10:01;12.10;;;7.17;;
15669;SDS011;18524;45.190;5.732;2024-03-06T23:14:54;8.93;;;5.93;;
15669;SDS011;18524;45.190;5.732;2024-03-06T23:19:45;8.30;;;5.47;;
15669;SDS011;18524;45.190;5.732;2024-03-06T23:24:35;6.90;;;5.33;;
15669;SDS011;18524;45.190;5.732;2024-03-06T23:29:25;5.90;;;4.80;;
15669;SDS011;18524;45.190;5.732;2024-03-06T23:34:16;6.27;;;4.30;;
15669;SDS011;18524;45.190;5.732;2024-03-06T23:39:06;10.17;;;5.27;;
15669;SDS011;18524;45.190;5.732;2024-03-06T23:43:58;5.70;;;4.60;;
15669;SDS011;18524;45.190;5.732;2024-03-06T23:48:48;7.27;;;5.20;;
15669;SDS011;18524;45.190;5.732;2024-03-06T23:53:39;6.93;;;5.03;;
15669;SDS011;18524;45.190;5.732;2024-03-06T23:58:29;7.57;;;5.30;;
